createdAt,value
2018-05-11T00:00:51.166Z,14.79
2018-05-11T00:01:51.190Z,14.75
2018-05-11T00:02:51.216Z,14.78
2018-05-11T00:03:51.241Z,14.78
2018-05-11T00:04:51.267Z,14.83
2018-05-11T00:05:51.298Z,14.85
2018-05-11T00:06:51.321Z,14.94
2018-05-11T00:07:51.350Z,14.95
2018-05-11T00:08:51.369Z,14.93
2018-05-11T00:09:51.399Z,14.91
2018-05-11T00:10:51.418Z,14.80
2018-05-11T00:11:51.441Z,14.69
2018-05-11T00:12:51.472Z,14.63
2018-05-11T00:13:51.496Z,14.64
2018-05-11T00:14:51.522Z,14.59
2018-05-11T00:15:51.546Z,14.63
2018-05-11T00:16:51.569Z,14.80
2018-05-11T00:17:51.604Z,14.79
2018-05-11T00:18:51.627Z,14.66
2018-05-11T00:19:51.650Z,14.78
2018-05-11T00:20:51.669Z,14.67
2018-05-11T00:21:51.695Z,14.57
2018-05-11T00:22:51.720Z,14.59
2018-05-11T00:23:51.744Z,14.52
2018-05-11T00:24:51.785Z,14.46
2018-05-11T00:25:51.798Z,14.44
2018-05-11T00:26:51.833Z,14.36
2018-05-11T00:27:51.850Z,14.45
2018-05-11T00:28:51.882Z,14.41
2018-05-11T00:29:51.899Z,14.35
2018-05-11T00:30:51.919Z,14.42
2018-05-11T00:31:51.949Z,14.36
2018-05-11T00:32:51.974Z,14.44
2018-05-11T00:33:52.000Z,14.42
2018-05-11T00:34:52.024Z,14.46
2018-05-11T00:35:52.052Z,14.46
2018-05-11T00:36:52.082Z,14.48
2018-05-11T00:37:52.103Z,14.35
2018-05-11T00:38:52.124Z,14.44
2018-05-11T00:39:52.149Z,14.39
2018-05-11T00:40:52.175Z,14.49
2018-05-11T00:41:52.202Z,14.46
2018-05-11T00:42:52.221Z,14.53
2018-05-11T00:43:52.249Z,14.41
2018-05-11T00:44:52.278Z,14.39
2018-05-11T00:45:52.299Z,14.45
2018-05-11T00:46:52.334Z,14.59
2018-05-11T00:47:52.353Z,14.45
2018-05-11T00:48:52.385Z,14.44
2018-05-11T00:49:52.402Z,14.61
2018-05-11T00:50:52.423Z,14.54
2018-05-11T00:51:52.448Z,14.45
2018-05-11T00:52:52.473Z,14.48
2018-05-11T00:53:52.499Z,14.46
2018-05-11T00:54:52.528Z,14.49
2018-05-11T00:55:52.551Z,14.48
2018-05-11T00:56:52.579Z,14.48
2018-05-11T00:57:52.600Z,14.44
2018-05-11T00:58:52.625Z,14.42
2018-05-11T00:59:52.653Z,14.54
2018-05-11T01:00:52.683Z,14.46
2018-05-11T01:01:52.704Z,14.54
2018-05-11T01:02:52.723Z,14.46
2018-05-11T01:03:52.755Z,14.53
2018-05-11T01:04:52.778Z,14.42
2018-05-11T01:05:52.801Z,14.44
2018-05-11T01:06:52.833Z,14.44
2018-05-11T01:07:52.853Z,14.42
2018-05-11T01:08:52.876Z,14.42
2018-05-11T01:09:52.909Z,14.39
2018-05-11T01:10:52.928Z,14.42
2018-05-11T01:11:52.958Z,14.39
2018-05-11T01:12:52.981Z,14.35
2018-05-11T01:13:53.006Z,14.35
2018-05-11T01:14:53.027Z,14.31
2018-05-11T01:15:53.058Z,14.41
2018-05-11T01:16:53.093Z,14.36
2018-05-11T01:17:53.107Z,14.42
2018-05-11T01:18:53.133Z,14.34
2018-05-11T01:19:53.151Z,14.42
2018-05-11T01:20:53.182Z,14.35
2018-05-11T01:21:53.203Z,14.35
2018-05-11T01:22:53.228Z,14.26
2018-05-11T01:23:53.252Z,14.34
2018-05-11T01:24:53.276Z,14.29
2018-05-11T01:25:53.304Z,14.24
2018-05-11T01:26:53.328Z,14.41
2018-05-11T01:27:53.366Z,14.23
2018-05-11T01:28:53.377Z,14.30
2018-05-11T01:29:53.403Z,14.36
2018-05-11T01:30:53.435Z,14.31
2018-05-11T01:31:53.452Z,14.24
2018-05-11T01:32:53.478Z,14.34
2018-05-11T01:33:53.505Z,14.19
2018-05-11T01:34:53.527Z,14.26
2018-05-11T01:35:53.554Z,14.17
2018-05-11T01:36:53.581Z,14.30
2018-05-11T01:37:53.608Z,14.23
2018-05-11T01:38:53.627Z,14.29
2018-05-11T01:39:53.746Z,14.21
2018-05-11T01:40:53.681Z,14.20
2018-05-11T01:41:53.702Z,14.23
2018-05-11T01:42:53.727Z,14.23
2018-05-11T01:43:53.752Z,14.29
2018-05-11T01:44:53.785Z,14.19
2018-05-11T01:45:53.801Z,14.16
2018-05-11T01:46:53.829Z,14.13
2018-05-11T01:47:53.853Z,14.12
2018-05-11T01:48:53.880Z,14.12
2018-05-11T01:49:53.901Z,14.20
2018-05-11T01:50:53.936Z,14.21
2018-05-11T01:51:53.953Z,14.12
2018-05-11T01:52:53.976Z,14.09
2018-05-11T01:53:54.002Z,14.11
2018-05-11T01:54:54.025Z,14.17
2018-05-11T01:55:54.051Z,14.16
2018-05-11T01:56:54.079Z,14.24
2018-05-11T01:57:54.109Z,14.26
2018-05-11T01:58:54.125Z,14.19
2018-05-11T01:59:54.152Z,14.17
2018-05-11T02:00:54.180Z,14.24
2018-05-11T02:01:54.200Z,14.19
2018-05-11T02:02:54.222Z,14.12
2018-05-11T02:03:54.253Z,14.19
2018-05-11T02:04:54.271Z,14.16
2018-05-11T02:05:54.303Z,14.27
2018-05-11T02:06:54.320Z,14.27
2018-05-11T02:07:54.346Z,14.38
2018-05-11T02:08:54.381Z,14.26
2018-05-11T02:09:54.396Z,14.29
2018-05-11T02:10:54.424Z,14.21
2018-05-11T02:11:54.449Z,14.29
2018-05-11T02:12:54.475Z,14.27
2018-05-11T02:13:54.496Z,14.23
2018-05-11T02:14:54.528Z,14.19
2018-05-11T02:15:54.549Z,14.16
2018-05-11T02:16:54.578Z,14.12
2018-05-11T02:17:54.598Z,14.12
2018-05-11T02:18:54.624Z,14.08
2018-05-11T02:19:54.649Z,14.08
2018-05-11T02:20:54.670Z,14.13
2018-05-11T02:21:54.694Z,14.13
2018-05-11T02:22:54.720Z,14.12
2018-05-11T02:23:54.746Z,14.21
2018-05-11T02:24:54.773Z,14.20
2018-05-11T02:25:54.866Z,14.17
2018-05-11T02:26:54.814Z,14.27
2018-05-11T02:27:54.848Z,14.30
2018-05-11T02:28:54.871Z,14.34
2018-05-11T02:29:54.899Z,14.29
2018-05-11T02:30:54.920Z,14.31
2018-05-11T02:31:54.940Z,14.35
2018-05-11T02:32:54.970Z,14.34
2018-05-11T02:33:55.007Z,14.38
2018-05-11T02:34:55.018Z,14.36
2018-05-11T02:35:55.046Z,14.44
2018-05-11T02:36:55.066Z,14.36
2018-05-11T02:37:55.093Z,14.46
2018-05-11T02:38:55.114Z,14.44
2018-05-11T02:39:55.145Z,14.30
2018-05-11T02:40:55.170Z,14.31
2018-05-11T02:41:55.197Z,14.26
2018-05-11T02:42:55.220Z,14.30
2018-05-11T02:43:55.243Z,14.36
2018-05-11T02:44:55.269Z,14.41
2018-05-11T02:45:55.294Z,14.29
2018-05-11T02:46:55.333Z,14.27
2018-05-11T02:47:55.339Z,14.35
2018-05-11T02:48:55.367Z,14.30
2018-05-11T02:49:55.394Z,14.27
2018-05-11T02:50:55.413Z,14.27
2018-05-11T02:51:55.446Z,14.17
2018-05-11T02:52:55.469Z,14.19
2018-05-11T02:53:55.498Z,14.21
2018-05-11T02:54:55.518Z,14.26
2018-05-11T02:55:55.538Z,14.29
2018-05-11T02:56:55.568Z,14.42
2018-05-11T02:57:55.593Z,14.35
2018-05-11T02:58:55.613Z,14.39
2018-05-11T02:59:55.650Z,14.29
2018-05-11T03:00:55.669Z,14.30
2018-05-11T03:01:55.693Z,14.34
2018-05-11T03:02:55.717Z,14.24
2018-05-11T03:03:55.740Z,14.45
2018-05-11T03:04:55.763Z,14.45
2018-05-11T03:05:55.793Z,14.48
2018-05-11T03:06:55.818Z,14.49
2018-05-11T03:07:55.839Z,14.44
2018-05-11T03:08:55.869Z,14.42
2018-05-11T03:09:55.894Z,14.46
2018-05-11T03:10:55.919Z,14.46
2018-05-11T03:11:55.939Z,14.59
2018-05-11T03:12:55.976Z,14.48
2018-05-11T03:13:55.997Z,14.49
2018-05-11T03:14:56.013Z,14.48
2018-05-11T03:15:56.045Z,14.48
2018-05-11T03:16:56.062Z,14.42
2018-05-11T03:17:56.097Z,14.44
2018-05-11T03:18:56.113Z,14.36
2018-05-11T03:19:56.144Z,14.29
2018-05-11T03:20:56.176Z,14.36
2018-05-11T03:21:56.196Z,14.26
2018-05-11T03:22:56.218Z,14.27
2018-05-11T03:23:56.242Z,14.36
2018-05-11T03:24:56.263Z,14.35
2018-05-11T03:25:56.296Z,14.30
2018-05-11T03:26:56.318Z,14.41
2018-05-11T03:27:56.345Z,14.30
2018-05-11T03:28:56.368Z,14.38
2018-05-11T03:29:56.393Z,14.24
2018-05-11T03:30:56.419Z,14.29
2018-05-11T03:31:56.445Z,14.21
2018-05-11T03:32:56.471Z,14.31
2018-05-11T03:33:56.492Z,14.34
2018-05-11T03:34:56.521Z,14.30
2018-05-11T03:35:56.542Z,14.29
2018-05-11T03:36:56.562Z,14.30
2018-05-11T03:37:56.596Z,14.30
2018-05-11T03:38:56.616Z,14.27
2018-05-11T03:39:56.637Z,14.31
2018-05-11T03:40:56.677Z,14.36
2018-05-11T03:41:56.696Z,14.30
2018-05-11T03:42:56.717Z,14.23
2018-05-11T03:43:56.742Z,14.24
2018-05-11T03:44:56.767Z,14.17
2018-05-11T03:45:56.791Z,14.26
2018-05-11T03:46:56.815Z,14.35
2018-05-11T03:47:56.841Z,14.31
2018-05-11T03:48:56.862Z,14.39
2018-05-11T03:49:56.891Z,14.27
2018-05-11T03:50:56.912Z,14.38
2018-05-11T03:51:56.936Z,14.36
2018-05-11T03:52:56.967Z,14.48
2018-05-11T03:53:56.999Z,14.49
2018-05-11T03:54:57.019Z,14.52
2018-05-11T03:55:57.040Z,14.57
2018-05-11T03:56:57.071Z,14.46
2018-05-11T03:57:57.088Z,14.57
2018-05-11T03:58:57.120Z,14.52
2018-05-11T03:59:57.147Z,14.44
2018-05-11T04:00:57.167Z,14.53
2018-05-11T04:01:57.187Z,14.57
2018-05-11T04:02:57.210Z,14.63
2018-05-11T04:03:57.235Z,14.63
2018-05-11T04:04:57.269Z,14.67
2018-05-11T04:05:57.293Z,14.54
2018-05-11T04:06:57.316Z,14.59
2018-05-11T04:07:57.339Z,14.56
2018-05-11T04:08:57.361Z,14.57
2018-05-11T04:09:57.391Z,14.59
2018-05-11T04:10:57.410Z,14.49
2018-05-11T04:11:57.440Z,14.46
2018-05-11T04:12:57.469Z,14.30
2018-05-11T04:13:57.485Z,14.38
2018-05-11T04:14:57.519Z,14.27
2018-05-11T04:15:57.543Z,14.29
2018-05-11T04:16:57.565Z,14.31
2018-05-11T04:17:57.590Z,14.27
2018-05-11T04:18:57.616Z,14.26
2018-05-11T04:19:57.639Z,14.30
2018-05-11T04:20:57.659Z,14.30
2018-05-11T04:21:57.693Z,14.13
2018-05-11T04:22:57.712Z,14.13
2018-05-11T04:23:57.735Z,14.12
2018-05-11T04:24:57.774Z,14.16
2018-05-11T04:25:57.789Z,14.11
2018-05-11T04:26:57.814Z,14.11
2018-05-11T04:27:57.844Z,14.19
2018-05-11T04:28:57.865Z,14.09
2018-05-11T04:29:57.890Z,14.16
2018-05-11T04:30:57.912Z,14.13
2018-05-11T04:31:57.933Z,14.11
2018-05-11T04:32:57.968Z,14.19
2018-05-11T04:33:57.988Z,14.12
2018-05-11T04:34:58.018Z,14.13
2018-05-11T04:35:58.040Z,14.13
2018-05-11T04:36:58.064Z,14.13
2018-05-11T04:37:58.090Z,14.04
2018-05-11T04:38:58.116Z,14.02
2018-05-11T04:39:58.139Z,14.05
2018-05-11T04:40:58.158Z,13.94
2018-05-11T04:41:58.188Z,13.90
2018-05-11T04:42:58.208Z,13.93
2018-05-11T04:43:58.233Z,13.87
2018-05-11T04:44:58.264Z,13.84
2018-05-11T04:45:58.288Z,13.87
2018-05-11T04:46:58.308Z,13.87
2018-05-11T04:47:58.337Z,13.96
2018-05-11T04:48:58.362Z,13.93
2018-05-11T04:49:58.387Z,13.98
2018-05-11T04:50:58.408Z,13.99
2018-05-11T04:51:58.434Z,14.04
2018-05-11T04:52:58.457Z,14.04
2018-05-11T04:53:58.485Z,14.02
2018-05-11T04:54:58.507Z,14.09
2018-05-11T04:55:58.535Z,14.04
2018-05-11T04:56:58.558Z,14.04
2018-05-11T04:57:58.588Z,14.02
2018-05-11T04:58:58.610Z,14.04
2018-05-11T04:59:58.637Z,14.17
2018-05-11T05:00:58.658Z,14.17
2018-05-11T05:01:58.685Z,14.29
2018-05-11T05:02:58.708Z,14.30
2018-05-11T05:03:58.737Z,14.39
2018-05-11T05:04:58.758Z,14.38
2018-05-11T05:05:58.783Z,14.35
2018-05-11T05:06:58.814Z,14.46
2018-05-11T05:07:58.834Z,14.48
2018-05-11T05:08:58.860Z,14.57
2018-05-11T05:09:58.884Z,14.53
2018-05-11T05:10:58.907Z,14.57
2018-05-11T05:11:58.937Z,14.59
2018-05-11T05:12:58.961Z,14.69
2018-05-11T05:13:58.982Z,14.72
2018-05-11T05:14:59.017Z,14.66
2018-05-11T05:15:59.033Z,14.66
2018-05-11T05:16:59.057Z,14.60
2018-05-11T05:17:59.082Z,14.42
2018-05-11T05:18:59.106Z,14.39
2018-05-11T05:19:59.136Z,14.46
2018-05-11T05:20:59.162Z,14.52
2018-05-11T05:21:59.186Z,14.53
2018-05-11T05:22:59.208Z,14.59
2018-05-11T05:23:59.232Z,14.63
2018-05-11T05:24:59.260Z,14.60
2018-05-11T05:25:59.294Z,14.49
2018-05-11T05:26:59.309Z,14.53
2018-05-11T05:27:59.336Z,14.61
2018-05-11T05:28:59.367Z,14.64
2018-05-11T05:29:59.385Z,14.67
2018-05-11T05:30:59.417Z,14.61
2018-05-11T05:31:59.437Z,14.72
2018-05-11T05:32:59.474Z,14.74
2018-05-11T05:33:59.488Z,14.80
2018-05-11T05:34:59.507Z,14.82
2018-05-11T05:35:59.545Z,14.78
2018-05-11T05:36:59.562Z,14.80
2018-05-11T05:37:59.586Z,14.82
2018-05-11T05:38:59.612Z,14.79
2018-05-11T05:39:59.636Z,14.71
2018-05-11T05:40:59.665Z,14.74
2018-05-11T05:41:59.686Z,14.80
2018-05-11T05:42:59.712Z,14.74
2018-05-11T05:43:59.737Z,14.87
2018-05-11T05:44:59.782Z,14.97
2018-05-11T05:45:59.791Z,14.97
2018-05-11T05:46:59.812Z,15.00
2018-05-11T05:47:59.836Z,14.98
2018-05-11T05:48:59.865Z,15.00
2018-05-11T05:49:59.890Z,14.97
2018-05-11T05:50:59.917Z,15.04
2018-05-11T05:52:00.031Z,15.01
2018-05-11T05:52:59.970Z,15.20
2018-05-11T05:53:59.997Z,15.07
2018-05-11T05:55:00.016Z,15.16
2018-05-11T05:56:00.043Z,15.16
2018-05-11T05:57:00.074Z,15.31
2018-05-11T05:58:00.095Z,15.25
2018-05-11T05:59:00.125Z,15.30
2018-05-11T06:00:00.174Z,15.33
2018-05-11T06:01:00.174Z,15.43
2018-05-11T06:02:00.197Z,15.40
2018-05-11T06:03:00.225Z,15.53
2018-05-11T06:04:00.253Z,15.49
2018-05-11T06:05:00.276Z,15.64
2018-05-11T06:06:00.304Z,15.58
2018-05-11T06:07:00.329Z,15.55
2018-05-11T06:08:00.354Z,15.62
2018-05-11T06:09:00.385Z,15.62
2018-05-11T06:10:00.412Z,15.46
2018-05-11T06:11:00.430Z,15.46
2018-05-11T06:12:00.456Z,15.31
2018-05-11T06:13:00.491Z,15.37
2018-05-11T06:14:00.521Z,15.40
2018-05-11T06:15:00.537Z,15.35
2018-05-11T06:16:00.560Z,15.35
2018-05-11T06:17:00.585Z,15.37
2018-05-11T06:18:00.610Z,15.43
2018-05-11T06:19:00.639Z,15.51
2018-05-11T06:20:00.661Z,15.55
2018-05-11T06:21:00.695Z,15.51
2018-05-11T06:22:00.752Z,15.55
2018-05-11T06:23:00.743Z,15.68
2018-05-11T06:24:00.770Z,15.76
2018-05-11T06:25:00.790Z,15.80
2018-05-11T06:26:00.826Z,15.85
2018-05-11T06:27:00.845Z,15.81
2018-05-11T06:28:00.878Z,15.74
2018-05-11T06:29:00.910Z,15.81
2018-05-11T06:30:00.939Z,15.95
2018-05-11T06:31:00.952Z,15.92
2018-05-11T06:32:00.979Z,15.95
2018-05-11T06:33:01.002Z,15.98
2018-05-11T06:34:01.028Z,16.01
2018-05-11T06:35:01.057Z,15.93
2018-05-11T06:36:01.086Z,15.89
2018-05-11T06:37:01.111Z,15.91
2018-05-11T06:38:01.134Z,15.93
2018-05-11T06:39:01.159Z,15.92
2018-05-11T06:40:01.190Z,15.88
2018-05-11T06:41:01.221Z,15.96
2018-05-11T06:42:01.247Z,15.76
2018-05-11T06:43:01.264Z,15.80
2018-05-11T06:44:01.291Z,15.85
2018-05-11T06:45:01.316Z,15.81
2018-05-11T06:46:01.346Z,15.81
2018-05-11T06:47:01.369Z,15.74
2018-05-11T06:48:01.397Z,15.73
2018-05-11T06:49:01.422Z,15.78
2018-05-11T06:50:01.450Z,15.73
2018-05-11T06:51:01.479Z,15.71
2018-05-11T06:52:01.499Z,15.56
2018-05-11T06:53:01.622Z,15.53
2018-05-11T06:54:01.548Z,15.48
2018-05-11T06:55:01.574Z,15.49
2018-05-11T06:56:01.606Z,15.55
2018-05-11T06:57:01.628Z,15.77
2018-05-11T06:58:01.655Z,15.74
2018-05-11T06:59:01.681Z,15.56
2018-05-11T07:00:01.717Z,15.46
2018-05-11T07:01:01.756Z,15.25
2018-05-11T07:02:01.761Z,15.16
2018-05-11T07:03:01.794Z,15.13
2018-05-11T07:04:01.813Z,15.18
2018-05-11T07:05:01.844Z,15.27
2018-05-11T07:06:01.865Z,15.13
2018-05-11T07:07:01.891Z,15.16
2018-05-11T07:08:02.003Z,15.11
2018-05-11T07:09:01.945Z,15.13
2018-05-11T07:10:01.973Z,15.04
2018-05-11T07:11:01.996Z,15.01
2018-05-11T07:12:02.015Z,15.05
2018-05-11T07:13:02.046Z,15.15
2018-05-11T07:14:02.089Z,15.28
2018-05-11T07:15:02.092Z,15.33
2018-05-11T07:16:02.127Z,15.33
2018-05-11T07:17:02.149Z,15.27
2018-05-11T07:18:02.172Z,15.16
2018-05-11T07:19:02.202Z,15.13
2018-05-11T07:20:02.226Z,15.19
2018-05-11T07:21:02.249Z,15.31
2018-05-11T07:22:02.281Z,15.30
2018-05-11T07:23:02.301Z,15.31
2018-05-11T07:24:02.327Z,15.25
2018-05-11T07:25:02.361Z,15.40
2018-05-11T07:26:02.381Z,15.44
2018-05-11T07:27:02.408Z,15.49
2018-05-11T07:28:02.435Z,15.52
2018-05-11T07:29:02.459Z,15.49
2018-05-11T07:30:02.480Z,15.52
2018-05-11T07:31:02.509Z,15.43
2018-05-11T07:32:02.538Z,15.43
2018-05-11T07:33:02.572Z,15.46
2018-05-11T07:34:02.593Z,15.40
2018-05-11T07:35:02.733Z,15.41
2018-05-11T07:36:02.638Z,15.28
2018-05-11T07:37:02.658Z,15.35
2018-05-11T07:38:02.690Z,15.38
2018-05-11T07:39:02.719Z,15.35
2018-05-11T07:40:02.739Z,15.48
2018-05-11T07:41:02.767Z,15.53
2018-05-11T07:42:02.798Z,15.51
2018-05-11T07:43:02.852Z,15.56
2018-05-11T07:44:02.841Z,15.66
2018-05-11T07:45:02.870Z,15.76
2018-05-11T07:46:02.896Z,15.74
2018-05-11T07:47:02.920Z,15.77
2018-05-11T07:48:02.949Z,15.80
2018-05-11T07:49:02.973Z,15.81
2018-05-11T07:50:02.995Z,15.86
2018-05-11T07:51:03.021Z,15.95
2018-05-11T07:52:03.049Z,15.99
2018-05-11T07:53:03.078Z,16.11
2018-05-11T07:54:03.102Z,16.14
2018-05-11T07:55:03.153Z,16.27
2018-05-11T07:56:03.150Z,16.36
2018-05-11T07:57:03.179Z,16.37
2018-05-11T07:58:03.212Z,16.34
2018-05-11T07:59:03.235Z,16.30
2018-05-11T08:00:03.261Z,16.32
2018-05-11T08:01:03.286Z,16.34
2018-05-11T08:02:03.315Z,16.27
2018-05-11T08:03:03.422Z,16.27
2018-05-11T08:04:03.435Z,16.33
2018-05-11T08:05:03.397Z,16.33
2018-05-11T08:06:03.410Z,16.32
2018-05-11T08:07:03.442Z,16.30
2018-05-11T08:08:03.464Z,16.25
2018-05-11T08:09:03.492Z,16.18
2018-05-11T08:10:03.515Z,16.22
2018-05-11T08:11:03.541Z,16.32
2018-05-11T08:12:03.571Z,16.23
2018-05-11T08:13:03.594Z,16.23
2018-05-11T08:14:03.715Z,16.25
2018-05-11T08:15:03.647Z,16.32
2018-05-11T08:16:03.672Z,16.47
2018-05-11T08:17:03.699Z,16.51
2018-05-11T08:18:03.724Z,16.52
2018-05-11T08:19:03.748Z,16.65
2018-05-11T08:20:03.781Z,16.60
2018-05-11T08:21:03.804Z,16.69
2018-05-11T08:22:03.906Z,16.85
2018-05-11T08:23:03.861Z,16.82
2018-05-11T08:24:03.879Z,16.80
2018-05-11T08:25:03.909Z,16.66
2018-05-11T08:26:03.934Z,16.65
2018-05-11T08:27:03.962Z,16.44
2018-05-11T08:28:03.989Z,16.48
2018-05-11T08:29:04.029Z,16.48
2018-05-11T08:30:04.041Z,16.48
2018-05-11T08:31:04.067Z,16.48
2018-05-11T08:32:04.099Z,16.50
2018-05-11T08:33:04.117Z,16.62
2018-05-11T08:34:04.147Z,16.60
2018-05-11T08:35:04.176Z,16.63
2018-05-11T08:36:04.205Z,16.67
2018-05-11T08:37:04.223Z,16.60
2018-05-11T08:38:04.254Z,16.59
2018-05-11T08:39:04.278Z,16.65
2018-05-11T08:40:04.305Z,16.67
2018-05-11T08:41:04.338Z,16.63
2018-05-11T08:42:04.362Z,16.62
2018-05-11T08:43:04.388Z,16.54
2018-05-11T08:44:04.412Z,16.57
2018-05-11T08:45:04.440Z,16.62
2018-05-11T08:46:04.467Z,16.60
2018-05-11T08:47:04.494Z,16.57
2018-05-11T08:48:04.513Z,16.57
2018-05-11T08:49:04.547Z,16.67
2018-05-11T08:50:04.568Z,16.62
2018-05-11T08:51:04.595Z,16.66
2018-05-11T08:52:04.618Z,16.72
2018-05-11T08:53:04.650Z,16.70
2018-05-11T08:54:04.685Z,16.70
2018-05-11T08:55:04.701Z,16.90
2018-05-11T08:56:04.726Z,16.77
2018-05-11T08:57:04.764Z,16.85
2018-05-11T08:58:04.784Z,16.80
2018-05-11T08:59:04.803Z,16.75
2018-05-11T09:00:04.838Z,16.90
2018-05-11T09:01:04.909Z,16.77
2018-05-11T09:02:04.896Z,16.75
2018-05-11T09:03:04.930Z,16.78
2018-05-11T09:04:04.937Z,16.82
2018-05-11T09:05:04.968Z,16.88
2018-05-11T09:06:04.994Z,16.87
2018-05-11T09:07:05.018Z,16.85
2018-05-11T09:08:05.043Z,16.75
2018-05-11T09:09:05.074Z,16.90
2018-05-11T09:10:05.101Z,16.91
2018-05-11T09:11:05.130Z,16.96
2018-05-11T09:12:05.148Z,16.95
2018-05-11T09:13:05.178Z,16.96
2018-05-11T09:14:05.211Z,16.99
2018-05-11T09:15:05.237Z,17.07
2018-05-11T09:16:05.258Z,17.12
2018-05-11T09:17:05.287Z,17.05
2018-05-11T09:18:05.315Z,17.00
2018-05-11T09:19:05.337Z,17.15
2018-05-11T09:20:05.362Z,17.09
2018-05-11T09:21:05.390Z,17.05
2018-05-11T09:22:05.429Z,17.14
2018-05-11T09:23:05.442Z,17.00
2018-05-11T09:24:05.473Z,17.09
2018-05-11T09:25:05.497Z,17.12
2018-05-11T09:26:05.528Z,17.07
2018-05-11T09:27:05.550Z,17.25
2018-05-11T09:28:05.581Z,17.17
2018-05-11T09:29:05.602Z,17.17
2018-05-11T09:30:05.636Z,17.18
2018-05-11T09:31:05.660Z,17.20
2018-05-11T09:32:05.679Z,17.22
2018-05-11T09:33:05.711Z,17.07
2018-05-11T09:34:05.734Z,17.14
2018-05-11T09:35:05.765Z,17.20
2018-05-11T09:36:05.791Z,17.24
2018-05-11T09:37:05.816Z,17.25
2018-05-11T09:38:05.844Z,17.39
2018-05-11T09:39:05.866Z,17.40
2018-05-11T09:40:05.893Z,17.40
2018-05-11T09:41:05.918Z,17.57
2018-05-11T09:42:05.948Z,17.71
2018-05-11T09:43:05.973Z,17.81
2018-05-11T09:44:06.010Z,17.95
2018-05-11T09:45:06.028Z,17.96
2018-05-11T09:46:06.057Z,18.05
2018-05-11T09:47:06.089Z,18.02
2018-05-11T09:48:06.107Z,18.04
2018-05-11T09:49:06.138Z,17.96
2018-05-11T09:50:06.161Z,18.09
2018-05-11T09:51:06.196Z,18.02
2018-05-11T09:52:06.221Z,17.96
2018-05-11T09:53:06.242Z,18.02
2018-05-11T09:54:06.267Z,18.11
2018-05-11T09:55:06.365Z,18.07
2018-05-11T09:56:06.320Z,18.20
2018-05-11T09:57:06.351Z,18.26
2018-05-11T09:58:06.386Z,18.28
2018-05-11T09:59:06.405Z,18.35
2018-05-11T10:00:06.431Z,18.47
2018-05-11T10:01:06.464Z,18.36
2018-05-11T10:02:06.490Z,18.34
2018-05-11T10:03:06.515Z,18.47
2018-05-11T10:04:06.544Z,18.39
2018-05-11T10:05:06.569Z,18.42
2018-05-11T10:06:06.594Z,18.54
2018-05-11T10:07:06.630Z,18.47
2018-05-11T10:08:06.643Z,18.47
2018-05-11T10:09:06.726Z,18.57
2018-05-11T10:10:06.704Z,18.60
2018-05-11T10:11:06.729Z,18.65
2018-05-11T10:12:06.758Z,18.78
2018-05-11T10:13:06.779Z,18.75
2018-05-11T10:14:06.814Z,18.76
2018-05-11T10:15:06.844Z,18.90
2018-05-11T10:16:06.864Z,18.91
2018-05-11T10:17:06.891Z,19.06
2018-05-11T10:18:06.920Z,19.20
2018-05-11T10:19:06.945Z,19.30
2018-05-11T10:20:06.981Z,19.25
2018-05-11T10:21:07.003Z,19.27
2018-05-11T10:22:07.041Z,19.24
2018-05-11T10:23:07.058Z,19.21
2018-05-11T10:24:07.084Z,19.42
2018-05-11T10:25:07.114Z,19.35
2018-05-11T10:26:07.138Z,19.62
2018-05-11T10:27:07.169Z,19.85
2018-05-11T10:28:07.191Z,19.86
2018-05-11T10:29:07.276Z,20.00
2018-05-11T10:30:07.258Z,19.98
2018-05-11T10:31:07.282Z,19.97
2018-05-11T10:32:07.307Z,20.10
2018-05-11T10:33:07.338Z,20.05
2018-05-11T10:34:07.372Z,20.20
2018-05-11T10:35:07.388Z,20.25
2018-05-11T10:36:07.420Z,20.38
2018-05-11T10:37:07.445Z,20.34
2018-05-11T10:38:07.474Z,20.42
2018-05-11T10:39:07.503Z,20.69
2018-05-11T10:40:07.529Z,20.82
2018-05-11T10:41:07.561Z,20.87
2018-05-11T10:42:07.587Z,20.93
2018-05-11T10:43:07.613Z,21.00
2018-05-11T10:44:07.642Z,21.05
2018-05-11T10:45:07.671Z,20.78
2018-05-11T10:46:07.703Z,20.83
2018-05-11T10:47:07.732Z,20.94
2018-05-11T10:48:07.759Z,21.05
2018-05-11T10:49:07.788Z,21.18
2018-05-11T10:50:07.833Z,21.13
2018-05-11T10:51:07.847Z,21.11
2018-05-11T10:52:07.872Z,21.06
2018-05-11T10:53:07.897Z,21.08
2018-05-11T10:54:07.938Z,20.97
2018-05-11T10:55:07.959Z,20.81
2018-05-11T10:56:08.038Z,20.75
2018-05-11T10:57:08.023Z,20.63
2018-05-11T10:58:08.045Z,20.50
2018-05-11T10:59:08.082Z,20.57
2018-05-11T11:00:08.105Z,20.64
2018-05-11T11:01:08.186Z,20.56
2018-05-11T11:02:08.163Z,20.66
2018-05-11T11:03:08.193Z,20.72
2018-05-11T11:04:08.224Z,20.58
2018-05-11T11:05:08.249Z,20.71
2018-05-11T11:06:08.281Z,20.68
2018-05-11T11:07:08.312Z,20.82
2018-05-11T11:08:08.344Z,20.90
2018-05-11T11:09:08.368Z,20.90
2018-05-11T11:10:08.401Z,20.93
2018-05-11T11:11:08.428Z,20.91
2018-05-11T11:12:08.457Z,20.93
2018-05-11T11:13:08.483Z,20.85
2018-05-11T11:14:08.514Z,20.98
2018-05-11T11:15:08.540Z,20.79
2018-05-11T11:16:08.572Z,20.87
2018-05-11T11:17:08.598Z,21.01
2018-05-11T11:18:08.628Z,21.06
2018-05-11T11:19:08.658Z,21.03
2018-05-11T11:20:08.682Z,21.09
2018-05-11T11:21:08.723Z,21.12
2018-05-11T11:22:08.745Z,21.09
2018-05-11T11:23:08.773Z,21.24
2018-05-11T11:24:08.802Z,21.27
2018-05-11T11:25:08.833Z,21.13
2018-05-11T11:26:08.861Z,21.19
2018-05-11T11:27:08.891Z,21.27
2018-05-11T11:28:08.923Z,21.27
2018-05-11T11:29:08.947Z,21.18
2018-05-11T11:30:08.980Z,21.08
2018-05-11T11:31:09.003Z,21.01
2018-05-11T11:32:09.032Z,20.79
2018-05-11T11:33:09.067Z,20.60
2018-05-11T11:34:09.101Z,20.53
2018-05-11T11:35:09.126Z,20.50
2018-05-11T11:36:09.155Z,20.35
2018-05-11T11:37:09.180Z,20.34
2018-05-11T11:38:09.214Z,20.40
2018-05-11T11:39:09.236Z,20.38
2018-05-11T11:40:09.267Z,20.50
2018-05-11T11:41:09.313Z,20.48
2018-05-11T11:42:09.354Z,20.57
2018-05-11T11:43:09.359Z,20.48
2018-05-11T11:44:09.381Z,20.46
2018-05-11T11:45:09.412Z,20.61
2018-05-11T11:46:09.441Z,20.76
2018-05-11T11:47:09.471Z,20.87
2018-05-11T11:48:09.496Z,20.82
2018-05-11T11:49:09.527Z,20.91
2018-05-11T11:50:09.559Z,20.94
2018-05-11T11:51:09.586Z,21.08
2018-05-11T11:52:09.618Z,21.09
2018-05-11T11:53:09.640Z,21.16
2018-05-11T11:54:09.671Z,21.16
2018-05-11T11:55:09.698Z,21.12
2018-05-11T11:56:09.730Z,21.28
2018-05-11T11:57:09.756Z,21.30
2018-05-11T11:58:09.787Z,21.28
2018-05-11T11:59:09.814Z,21.46
2018-05-11T12:00:09.849Z,21.68
2018-05-11T12:01:09.875Z,21.89
2018-05-11T12:02:09.905Z,21.89
2018-05-11T12:03:09.935Z,21.93
2018-05-11T12:04:09.960Z,22.05
2018-05-11T12:05:09.993Z,22.02
2018-05-11T12:06:10.019Z,22.04
2018-05-11T12:07:10.049Z,21.81
2018-05-11T12:08:10.078Z,21.82
2018-05-11T12:09:10.115Z,21.86
2018-05-11T12:10:10.135Z,22.01
2018-05-11T12:11:10.167Z,22.02
2018-05-11T12:12:10.199Z,22.06
2018-05-11T12:13:10.227Z,21.91
2018-05-11T12:14:10.259Z,21.85
2018-05-11T12:15:10.284Z,22.02
2018-05-11T12:16:10.334Z,22.15
2018-05-11T12:17:10.349Z,22.17
2018-05-11T12:18:10.372Z,22.19
2018-05-11T12:19:10.406Z,22.14
2018-05-11T12:20:10.437Z,22.11
2018-05-11T12:21:10.466Z,21.99
2018-05-11T12:22:10.503Z,21.99
2018-05-11T12:23:10.519Z,22.01
2018-05-11T12:24:10.555Z,22.09
2018-05-11T12:25:10.584Z,21.99
2018-05-11T12:26:10.662Z,21.93
2018-05-11T12:27:10.655Z,21.94
2018-05-11T12:28:10.671Z,21.85
2018-05-11T12:29:10.706Z,21.81
2018-05-11T12:30:10.730Z,21.82
2018-05-11T12:31:10.767Z,21.85
2018-05-11T12:32:10.795Z,21.98
2018-05-11T12:33:10.820Z,22.12
2018-05-11T12:34:10.853Z,22.14
2018-05-11T12:35:10.881Z,22.20
2018-05-11T12:36:10.919Z,22.27
2018-05-11T12:37:10.942Z,22.36
2018-05-11T12:38:10.972Z,22.57
2018-05-11T12:39:10.997Z,22.63
2018-05-11T12:40:11.031Z,22.72
2018-05-11T12:41:11.157Z,22.56
2018-05-11T12:42:11.098Z,22.74
2018-05-11T12:43:11.118Z,22.70
2018-05-11T12:44:11.149Z,22.72
2018-05-11T12:45:11.178Z,22.86
2018-05-11T12:46:11.218Z,22.89
2018-05-11T12:47:11.243Z,23.01
2018-05-11T12:48:11.267Z,23.25
2018-05-11T12:49:11.303Z,24.04
2018-05-11T12:50:11.327Z,24.30
2018-05-11T12:51:11.367Z,24.60
2018-05-11T12:52:11.397Z,24.79
2018-05-11T12:53:11.426Z,26.57